Aeroporto :
LOGIN :

Iscrizione | Disclaimer

   EN    FR    IT 

 










Sommario :    VFR   VFR Marginale   IFR   IFR Intensivo   IFR Molto Intensivo
Visibilità : 
Base nubi : 
>= 8 km
>= 3000ft
5 / 8 km
1000 / 3000 ft
1500m / 5 km
500 / 1000 ft
800 / 1500m
200 / 500 ft
< 800m
< 200 ft
Simboli :   Temporali  Nebbia  Neve Forte  Precipitazioni Forti  Vento > 20 kt
SIGMETs :   Varie  Temporali  Ghiacco  Turbolenza  Onda orograficha  Ceneri Vulcaniche






- Altitudine del aeroporto : 1079 ft


ETIK - Illesheim Air Base

ULTIMO METAR :
  • 200956Z AUTO 20005KT 9999 SCT100 BKN120 05/01 A2980 RMK AO2 SLP104 T00510014 $

METARs OBSOLETI :
  • 200856Z AUTO 18009KT 9999 CLR 04/01 A2980 RMK AO2 SLP106 T00370007 57006 $
  • 200756Z AUTO 19006KT 9999 BKN110 04/01 A2981 RMK AO2 SLP108 T00360005 $

TAF TAF ETIK
Valido dal 20 a 07 ore il 21 a 13 ore UTC


200701Z 2007/2113 21009KT 9999 SCT100 510009 QNH2976INS
BECMG 2011/2012 20012G18KT 9999 SCT090 510009 QNH2974INS
BECMG 2014/2015 VRB06KT 9999 SCT080 510009 QNH2968INS
BECMG 2021/2022 VRB06KT 9999 FEW100 510009 QNH2962INS
BECMG 2103/2104 18009KT 9999 SCT060 BKN100 QNH2953INS TX06/2013Z TN00/2021Z



MetMap, La meteo Aeronautica in un colpo d'occhio ! - Copyright ORBIFLY Dicembre 2007 - Disclaimer

ORBIFLY MET'MAP TEAM :

Programmazione e sviluppo : Alexandra Zaïnal
Concezione : Baudouin d'Aumeries
Aiuto per la programmazione : Marc-Olivier Méhu
Supporto tecnico e logistico : Manuel Goepfert
Aiuto per la traduzione : Arnaldo La Scala

Contatto : metmap@orbifly.com




FONTI E CREDITI :

   NOAA